Racecast

Seaside 3-Course Challenge

Seaside 3 Course · 5000m · Girls · Compiled · OR

266 runners from 1 division

These divisions were run separately. This is how their times compare, not how they finished — the places and scores below were never contested.

View full meet →

Team scores

Place Team Points 12345 67
1 Tahoma (WA) 60 4 8 13 15 20 23 36
2 Summit (OR) 78 1 3 11 21 42 49 78
3 Marist (OR) 126 14 16 24 27 45
4 Enumclaw (WA) 155 6 12 39 46 52 53 63
5 North Bend (OR) 197 5 9 51 64 68 94 110
6 Bothell (WA) 200 28 34 35 38 65 75 80
7 Forest Grove (OR) 212 2 18 47 57 88 107
8 North Salem (OR) 253 25 31 61 67 69 73 84
9 Camas (WA) 253 29 37 59 62 66 74 77
10 Astoria (OR) 259 22 30 58 60 89
11 Columbia River (WA) 274 26 33 41 82 92 118
12 Banks (OR) 296 17 32 50 97 100
13 La Center (WA) 303 7 10 90 95 101 111
14 Bend (OR) 314 40 48 71 72 83 87 93
15 Federal Way (WA) 317 43 44 55 70 105 106 113
16 Mountain View (OR) (OR) 353 19 76 81 86 91 102
17 Madras (OR) 432 54 85 96 98 99
18 Sweet Home (OR) 482 56 79 112 116 119
19 Regis (OR) 538 103 104 108 109 114 115 117

Not scored, fewer than five finishers: Molalla (4), Sequim (4), Crook County (4), Nooksack Valley (4), Lakeridge (4), Southwest Christian (4), Fort Vancouver (4), Barlow (4), Rainier (OR) (4), Cottage Grove (4), Centralia (3), South Albany (3), Portland Waldorf (3), Knappa (3), Seaside (3), St Helens (3), The Dalles (3), Hoquiam (3), Auburn Riverside (2), Eastlake (2), Oak Harbor (2), Aberdeen (2), Stayton (2), Burlington-Edison (2), Pendleton (2), Cleveland (OR) (2), Bandon (2), Kennedy (2), Central Catholic (2), Springfield (2), Kent Meridian (2), Black Hills (2), Estacada (2), R.A. Long (2), Ilwaco (2), Hockinson (2), Taft (2), Neah-Kah-Nie (2), Auburn (2), Junction City (2), Meadowdale (2), Sumner (1), Elma (1), McKenzie (1), Montesano (1), Toledo (1), Scio (1)

Results

Place Athlete Grade School Time Rating Points Actual race
1 Kalee Cipra 11 Auburn Riverside (WA) 1 19:09.4 119.0 1
2 Katelyn Steen 9 Eastlake (WA) 1 19:12.7 118.7 2
3 Kellie Schueler 10 Summit (OR) 1 19:18.3 118.1 1 3
4 Mikayla Bradbury 12 Molalla (OR) 1 19:40.0 116.0 4
5 Sharon Rooker 9 Forest Grove (OR) 1 19:40.7 115.9 2 5
6 Allison Cutting 10 Sequim (WA) 1 19:43.0 115.7 6
7 Jesse Luersen 10 Summit (OR) 2 19:46.1 115.4 3 7
8 Leslie Foley 10 Crook County (OR) 1 20:06.4 113.4 8
9 Paige Pliler 11 Tahoma (WA) 1 20:12.7 112.8 4 9
10 Jessica Denmon 10 Oak Harbor (WA) 1 20:14.5 112.7 10
11 Katie Romanko 9 North Bend (OR) 1 20:20.1 112.1 5 11
12 Janie Dwyer 10 Eastlake (WA) 2 20:24.6 111.7 12
13 Carissa Gwerder 10 Enumclaw (WA) 1 20:30.9 111.2 6 13
14 Meagan Governor 10 La Center (WA) 1 20:38.0 110.5 7 14
15 Cortney Thomas 10 Aberdeen (WA) 1 20:39.2 110.4 15
16 Allie Willson 10 Tahoma (WA) 2 20:51.9 109.3 8 16
17 Amanda McMillan 12 North Bend (OR) 2 21:02.3 108.4 9 17
18 Laura Moser 11 Sequim (WA) 2 21:06.2 108.1 18
19 Jami Beed 11 La Center (WA) 2 21:07.5 107.9 10 19
20 Chelsea Hansen 10 Summit (OR) 3 21:08.3 107.9 11 20
21 Emily Hendricks 11 Stayton (OR) 1 21:13.2 107.5 21
22 Melanie Peters 11 Burlington-Edison (WA) 1 21:26.9 106.3 22
23 Christine Harwood 11 Pendleton (OR) 1 21:29.0 106.2 23
24 Nerissa Huff 10 Enumclaw (WA) 2 21:30.4 106.0 12 24
25 Emily Duerson 9 Tahoma (WA) 3 21:32.5 105.9 13 25
26 Brenn Donnelly 9 Marist (GA) 1 21:35.8 14 26
27 Whitney Janicki 10 Tahoma (WA) 4 21:37.8 105.4 15 27
28 Katie Colasurdo 11 Marist (GA) 2 21:45.5 104.8 16 28
29 Randi Chance 10 Molalla (OR) 2 21:46.3 104.7 29
30 Rachel Botsford 9 Molalla (OR) 3 21:47.9 104.6 30
31 Jessica Markham 9 Banks (OR) 1 21:58.1 103.8 17 31
32 Molly Buckiewicz 12 Forest Grove (OR) 2 22:00.4 103.6 18 32
33 Hayley Langmas 12 Mountain View (OR) (OR) 1 22:10.7 102.8 19 33
34 Lindsey Hansen - Tahoma (WA) 5 22:15.6 102.4 20 34
35 Amie Corso 12 Summit (OR) 4 22:26.8 101.6 21 35
36 Zoe Ballering 12 Cleveland (OR) (OR) 1 22:29.2 101.4 36
37 Michelle Sandstrom 11 Oak Harbor (WA) 2 22:32.0 101.2 37
38 Alex Ozuna 10 Nooksack Valley (WA) 1 22:36.8 100.8 38
39 Katie Billings 12 Sumner (WA) 1 22:37.9 100.8 39
40 Bridgette Nurding 12 Astoria (OR) 1 22:41.2 100.5 22 40
41 Brittany Van Dyken 9 Nooksack Valley (WA) 2 22:41.7 100.5 41
42 Nicole Dillavou 9 Pendleton (OR) 2 22:43.5 100.3 42
43 Brooke Mayer 12 Tahoma (WA) 6 22:45.8 100.2 23 43
44 Allie Sibole 10 Marist (GA) 3 22:51.2 99.8 24 44
45 Kali Wheeler 10 North Salem (OR) 1 22:59.1 99.2 25 45
46 Megan Haueter 9 Bandon (OR) 1 23:05.7 98.7 46
47 Abby Poindexter 10 Lakeridge (OR) 1 23:07.7 98.6 47
48 Lexi Kamerath 12 Columbia River (WA) 1 23:08.0 98.6 26 48
49 Tosh Wyeth 12 Aberdeen (WA) 2 23:17.3 97.9 49
50 Heidi Gori 10 Marist (GA) 4 23:23.4 97.5 27 50
51 Stephanie Jones 11 Kennedy (OR) 1 23:29.0 97.1 51
52 Christine Scullywest 11 Bothell (WA) 1 23:30.8 97.0 28 52
53 Abby Gundersen 10 Centralia (WA) 1 23:38.7 96.4 53
54 Anne Aylward 12 Southwest Christian (OR) 1 23:55.3 95.3 54
55 Katrina Ignagni 10 Sequim (WA) 3 23:55.7 95.3 55
56 MacKenzie Templeton 9 Burlington-Edison (WA) 2 23:57.7 95.2 56
57 Nicole Hamlin 11 Camas (WA) 1 24:01.2 94.9 29 57
58 Andrea Kurns 12 Astoria (OR) 2 24:11.6 94.3 30 58
59 Ryanne Hill 12 Stayton (OR) 2 24:13.3 94.2 59
60 Tanya Feshchenko 10 North Salem (OR) 2 24:17.0 93.9 31 60
61 Jessica Reaser - Banks (OR) 2 24:17.2 93.9 32 61
62 Anne Rodewald 11 Columbia River (WA) 2 24:17.8 93.9 33 62
63 Brittany Alexander 12 South Albany (OR) 1 24:19.8 93.7 63
64 Katie Arlan 12 Bothell (WA) 2 24:24.5 93.4 34 64
65 Shelby Cook 10 Bothell (WA) 3 24:27.3 93.2 35 65
66 Allison Sullivan 9 Tahoma (WA) 7 24:28.8 93.2 36 66
67 Brenna Holland 10 Central Catholic (OR) 1 24:29.7 93.1 67
68 Kiley Anderson - Camas (WA) 2 24:31.8 93.0 37 68
69 Desirae Hall 9 Bandon (OR) 2 24:38.1 92.6 69
70 Riley Porter 10 Bothell (WA) 4 24:38.8 92.5 38 70
71 Hailey Olafson 9 Enumclaw (WA) 3 24:42.3 92.3 39 71
72 Kelly Maloney 11 Bend (OR) 1 24:44.7 92.2 40 72
73 Anne Ellis 10 Columbia River (WA) 3 24:45.4 92.1 41 73
74 Lindsay Horton - Summit (OR) 5 24:51.5 91.7 42 74
75 Hannah Close 9 Springfield (OR) 1 24:52.8 91.7 75
76 Anayelli Coronel 12 Fort Vancouver (WA) 1 24:54.3 91.6 76
77 Joanne Packer 11 Federal Way (WA) 1 24:55.1 91.5 43 77
78 Dibian Alvarez 11 Federal Way (WA) 2 25:01.9 91.1 44 78
79 Chesnee Mitchell 11 Kent Meridian (WA) 1 25:02.6 91.1 79
80 Kelly Gorman - Marist (GA) 5 25:04.4 90.9 45 80
81 Kim Concillado 9 Kent Meridian (WA) 2 25:06.3 90.8 81
82 Alise Bailey 10 Enumclaw (WA) 4 25:08.6 90.7 46 82
83 Leah Gustafson 12 Barlow (OR) 1 25:08.8 90.7 83
84 Remove Remove 12 Cleveland (OR) (OR) 2 25:09.7 90.6 84
85 Ellie Burelson 10 Black Hills (WA) 1 25:10.1 90.6 85
86 Leah Tanous - Forest Grove (OR) 3 25:11.5 90.5 47 86
87 Kelly Williams 11 Bend (OR) 2 25:14.2 90.4 48 87
88 Ashlinn Prosch 9 Nooksack Valley (WA) 3 25:15.6 90.3 88
89 Elisabeth Bishop 11 Summit (OR) 6 25:20.5 90.0 49 89
90 Kiciah Gibson 9 Banks (OR) 3 25:22.8 89.8 50 90
91 Kristine Tvilde 12 Rainier (OR) (OR) 1 25:26.4 89.6 91
92 Makhail Stewart 10 Elma (WA) 1 25:29.0 89.5 92
93 Jessica Kalista 12 North Bend (OR) 3 25:29.7 89.4 51 93
94 Victoria Schmidt 9 Enumclaw (WA) 5 25:37.1 89.0 52 94
95 Katharina Straub 11 Tahoma (WA) 8 25:38.1 89.0 95
96 Courtney Clarke - Enumclaw (WA) 6 25:40.3 88.8 53 96
97 Brittany Dunn - Estacada (OR) 1 25:40.7 88.8 97
98 Amanda Butler - Madras (OR) 1 25:40.8 88.8 54 98
99 Denisse Alvarez 12 Federal Way (WA) 3 25:46.2 88.5 55 99
100 Julia Henthorne - Sweet Home (OR) 1 25:46.8 88.5 56 100
101 Jessica Wilcox 10 Cottage Grove (OR) 1 25:49.5 88.3 101
102 Madeline Allnutt 11 Forest Grove (OR) 4 25:50.8 88.2 57 102
103 Coni Roettger 12 R.A. Long (WA) 1 25:54.7 88.0 103
104 Ashley Miller - McKenzie (OR) 1 25:57.0 87.9 104
105 Jennifer Stephens 12 Astoria (OR) 3 26:00.0 87.7 58 105
106 Molly Adamson - Camas (WA) 3 26:02.6 87.6 59 106
107 Lexi Gouge 11 Astoria (OR) 4 26:08.5 87.2 60 107
108 Elisa Simon 10 Estacada (OR) 2 26:09.3 87.2 108
109 Miranda Glover 10 North Salem (OR) 3 26:11.3 87.1 61 109
110 Mackenzie Tipton 9 Camas (WA) 4 26:15.2 86.9 62 110
111 Annika Wolters 10 Ilwaco (WA) 1 26:17.9 86.7 111
112 Brianne Aoki 11 Enumclaw (WA) 7 26:20.7 86.6 63 112
113 Alex Bonanno 12 Crook County (OR) 2 26:27.6 86.2 113
114 Nicole Delimont - North Bend (OR) 4 26:29.6 86.1 64 114
115 Alicia deBont 9 Nooksack Valley (WA) 4 26:30.6 86.0 115
116 Michele Bernhart - Bothell (WA) 5 26:32.6 85.9 65 116
117 Erika Christenson - Camas (WA) 5 26:37.4 85.7 66 117
118 Kayla Allen 11 North Salem (OR) 4 26:38.9 85.6 67 118
119 Gretchen Noll 10 Portland Waldorf (OR) 1 26:40.3 85.5 119
120 Olivia Williams 12 Hockinson (WA) 1 26:42.4 85.4 120
121 Elizabeth Beechly 9 North Bend (OR) 5 26:47.0 85.1 68 121
122 Mileka Grager 12 Enumclaw (WA) 8 26:47.4 85.1 122
123 Debra Brown 10 North Salem (OR) 5 26:48.1 85.1 69 123
124 Rebecca Mcneil 12 Enumclaw (WA) 9 26:48.9 85.0 124
125 Mandy Jones 10 Federal Way (WA) 4 26:49.5 85.0 70 125
126 Jackie Hill 11 Bend (OR) 3 26:50.0 85.0 71 126
127 Haley Stanton 12 Bend (OR) 4 26:52.9 84.8 72 127
128 Shalie Bogenoff 11 North Salem (OR) 6 26:54.4 84.8 73 128
129 Jessica Castle 10 Camas (WA) 6 27:03.1 84.3 74 129
130 Molly Andrus 10 Bothell (WA) 6 27:04.4 84.2 75 130
131 Lauren Thompson - Lakeridge (OR) 2 27:06.2 84.1 131
132 Teal Francis 12 Mountain View (OR) (OR) 2 27:06.5 84.1 76 132
133 Kelcie Emerson 9 Camas (WA) 7 27:07.0 84.1 77 133
134 Meagan Dooney 10 Central Catholic (OR) 2 27:09.0 84.0 134
135 Tess Almquist 9 Summit (OR) 7 27:10.5 83.9 78 135
136 Jenna Kistner 9 Sweet Home (OR) 2 27:13.8 83.8 79 136
137 Leah Garner 9 Camas (WA) 8 27:14.7 83.7 137
138 Stephanie Guo 9 Camas (WA) 9 27:16.6 83.6 138
139 Joanna Guo 9 Camas (WA) 10 27:18.4 83.5 139
140 Sarah Van Kessel 9 Summit (OR) 8 27:18.9 83.5 140
141 Jenna Ubbenga 10 Enumclaw (WA) 10 27:19.4 83.5 141
142 Anna Morgan 9 Taft (OR) 1 27:21.2 83.4 142
143 Adrianne Schneider 10 Neah-Kah-Nie (OR) 1 27:22.2 83.3 143
144 Katie George 10 Knappa (OR) 1 27:25.7 83.1 144
145 Aleec Boswell 11 South Albany (OR) 2 27:26.7 83.1 145
146 Shauna Agalzoff 11 Seaside (OR) 1 27:29.0 83.0 146
147 Danielle Sanow 10 Auburn (AL) 1 27:30.2 82.9 147
148 Michelle Taylor 9 Black Hills (WA) 2 27:31.6 82.8 148
149 Joanna Miller 10 St Helens (OR) 1 27:32.4 82.8 149
150 Allie Duhamel 10 Bothell (WA) 7 27:33.5 82.8 80 150
151 Zoe Albertson 10 Seaside (OR) 2 27:40.2 82.4 151
152 Sarah Profitt 12 The Dalles (OR) 1 27:42.6 82.3 152
153 Holly Frampton 10 Auburn (AL) 2 27:43.3 82.3 153
154 Jennifer Rutledge 10 Enumclaw (WA) 11 27:45.0 82.2 154
155 Kailey Clark 12 Mountain View (OR) (OR) 3 27:45.8 82.1 81 155
156 Cassie Peckels 11 Columbia River (WA) 4 27:50.2 81.9 82 156
157 Heidi Hegewald 11 Bend (OR) 5 27:53.1 81.8 83 157
158 Edna Martinez 9 North Salem (OR) 7 27:55.0 81.7 84 158
159 Taylor Monroe 12 Southwest Christian (OR) 2 27:58.4 81.5 159
160 Cassie Stuva 12 Rainier (OR) (OR) 2 27:59.1 81.5 160
161 Katie Ewing - Bothell (WA) 8 28:00.3 81.4 161
162 Maria Garate - Madras (OR) 2 28:01.4 81.4 85 162
163 Bridget Kahn 10 Knappa (OR) 2 28:03.3 81.3 163
164 Jessica Thorschmidt 10 Southwest Christian (OR) 3 28:03.9 81.3 164
165 Sara Steiner 12 Auburn Riverside (WA) 2 28:04.2 81.2 165
166 Grace Hagenauer 11 Kennedy (OR) 2 28:07.1 81.1 166
167 Ashlee Jones 12 Mountain View (OR) (OR) 4 28:08.7 81.0 86 167
168 Cecillia Muzzolli 12 Crook County (OR) 3 28:11.5 80.9 168
169 Nicole Oelkers - Bend (OR) 6 28:19.1 80.5 87 169
170 Meg Taylor 10 R.A. Long (WA) 2 28:20.3 80.5 170
171 Haley Heynderickx 9 Forest Grove (OR) 5 28:24.0 80.3 88 171
172 Amy Vinson 11 Astoria (OR) 5 28:29.7 80.0 89 172
173 Natalia Harris 9 La Center (WA) 3 28:32.6 79.9 90 173
174 Kaitlyn Stroda 9 St Helens (OR) 2 28:36.3 79.7 174
175 Natalie Ponce 12 Camas (WA) 11 28:39.8 79.6 175
176 Alyssa Baker 10 Barlow (OR) 2 28:46.4 79.3 176
177 Tara Zeman 10 Portland Waldorf (OR) 2 28:47.2 79.2 177
178 Anjelica Quiroz 9 North Salem (OR) 8 28:50.2 79.1 178
179 Anna Nelson 10 Enumclaw (WA) 12 28:52.4 79.0 179
180 Ashlie Cook 12 Cottage Grove (OR) 2 28:53.2 78.9 180
181 Emma Krueger 10 Summit (OR) 9 28:54.1 78.9 181
182 Alana McKenzie 10 Portland Waldorf (OR) 3 28:58.5 78.7 182
183 Leah Rimington 9 Fort Vancouver (WA) 2 29:07.7 183
184 Baker Jillian 11 Fort Vancouver (WA) 3 29:08.5 78.2 184
185 Chantal Pointer 12 North Salem (OR) 9 29:09.2 78.2 185
186 Liz Denker 12 Southwest Christian (OR) 4 29:10.0 78.2 186
187 Lacey Contino 11 Summit (OR) 10 29:10.8 78.2 187
188 Janelle Urioste - Mountain View (OR) (OR) 5 29:11.2 78.1 91 188
189 Stefanie Schieter 12 The Dalles (OR) 2 29:19.0 77.8 189
190 Sarah Brady 12 The Dalles (OR) 3 29:19.6 77.8 190
191 Aubrey DuBois 10 Neah-Kah-Nie (OR) 2 29:24.3 77.6 191
192 Kayla Goodman 12 Junction City (KS) 1 29:24.8 77.5 192
193 Amanda Goffard 11 Meadowdale (WA) 1 29:36.7 77.0 193
194 Adrianna Henry - Crook County (OR) 4 29:38.7 76.9 194
195 Kayla Rodgers 12 Columbia River (WA) 5 29:46.1 76.6 92 195
196 Carlie Deltoro 9 Bend (OR) 7 29:47.2 76.6 93 196
197 Holly Stevens - North Bend (OR) 6 29:47.9 76.5 94 197
198 Morgan Phillips 11 Summit (OR) 11 29:48.1 76.5 198
199 Amanda Rolens 10 North Salem (OR) 10 29:49.3 76.5 199
200 Kenzi Wirkkala 9 Ilwaco (WA) 2 29:50.0 76.4 200
201 Julie Blikstad 12 Bend (OR) 8 29:51.8 76.4 201
202 Margarita Doty 11 La Center (WA) 4 29:56.1 76.2 95 202
203 Anna Marks 11 Knappa (OR) 3 29:57.5 76.1 203
204 Cortney Flu 10 Madras (OR) 3 30:00.1 76.0 96 204
205 Katelyn Dunn 11 Cottage Grove (OR) 3 30:02.9 75.9 205
206 Camelle Smith 10 Banks (OR) 4 30:05.5 75.8 97 206
207 Brittney Devore 10 Madras (OR) 4 30:06.0 75.8 98 207
208 Sarah Leutwiler 12 Madras (OR) 5 30:06.4 75.8 99 208
209 Mary Pataridze 11 Tahoma (WA) 9 30:09.2 75.6 209
210 Sara Markham - Banks (OR) 5 30:13.9 75.4 100 210
211 Megan Dahlberg - Barlow (OR) 3 30:18.9 75.2 211
212 Olivia Seltzer 12 Barlow (OR) 4 30:24.9 75.0 212
213 Laura Ross 11 La Center (WA) 5 30:27.5 101 213
214 Liz Bodenhamer 9 Montesano (WA) 1 30:28.4 74.8 214
215 Alexandrea Molieri - Enumclaw (WA) 13 30:41.9 74.3 216
216 Kelsy Combs 9 Cottage Grove (OR) 4 30:42.0 74.3 217
217 Laken Gortler 10 Rainier (OR) (OR) 3 30:45.7 74.1 218
218 Sarah Puddy 12 Mountain View (OR) (OR) 6 30:47.9 102 219
219 Sarah Uselman 9 Regis (OR) 1 30:50.3 73.9 103 220
220 Stephanie Josephson 12 Camas (WA) 12 30:53.5 73.8 221
221 Archelle Grajeda - Lakeridge (OR) 3 30:55.3 73.8 222
222 Jodie Lonergan 9 Regis (OR) 2 31:26.5 72.5 104 223
223 Alicia Williams 9 Hockinson (WA) 2 31:37.3 72.1 224
224 Rachel Olivarez 11 Federal Way (WA) 5 31:44.9 71.8 105 225
225 Amanda Tran 11 Federal Way (WA) 6 31:49.5 71.7 106 226
226 Stephanie Josey - Molalla (OR) 4 32:04.3 71.1 227
227 Ashley Wagner - South Albany (OR) 3 32:06.2 71.0 228
228 Liz Marx - Lakeridge (OR) 4 32:07.8 71.0 229
229 Megan Chuinard 11 Forest Grove (OR) 6 32:10.4 70.9 107 230
230 Hannah Reazin 11 Fort Vancouver (WA) 4 32:11.4 70.8 231
231 Anna Usselman 12 Regis (OR) 3 32:33.6 70.0 108 232
232 Meagan Usselman 10 Regis (OR) 4 32:34.1 70.0 109 233
233 Sarah Burkhart 12 Springfield (OR) 2 32:36.8 69.9 234
234 Caitlin Young 10 Summit (OR) 12 32:37.9 69.9 235
235 Jennifer Ingertila 12 Tahoma (WA) 10 32:42.3 69.7 236
236 Cara Haaga - Bothell (WA) 9 32:42.7 69.7 237
237 Kailey Bolles - Bothell (WA) 10 33:04.5 68.9 238
238 Chelsea Hall - North Bend (OR) 7 33:07.4 68.8 110 239
239 Ivy Wickman-Lass 11 Bend (OR) 9 33:07.8 68.8 240
240 Kylie Jacobs 12 Toledo (WA) 1 33:19.1 68.4 241
241 Kailyn Haley 9 Scio (OR) 1 33:34.6 67.9 242
242 Emily Loberg 11 North Salem (OR) 11 33:37.6 67.8 243
243 Harveen Sandhu 11 La Center (WA) 6 33:42.2 67.7 111 244
244 Korina Thompson - Sweet Home (OR) 3 33:45.5 67.6 112 245
245 Lizeth Duran - Federal Way (WA) 7 33:48.4 67.5 113 246
246 Sammi Malsack 9 Rainier (OR) (OR) 4 33:58.7 67.1 247
247 Shirley Shimer - Meadowdale (WA) 2 34:14.6 66.6 248
248 Kaitlin Anderson 9 Junction City (KS) 2 34:19.3 66.4 249
249 Brieanna Brookes 9 St Helens (OR) 3 34:35.5 65.9 250
250 Anna Moschel 9 Taft (OR) 2 34:50.8 65.4 251
251 Marissa Bender 11 Regis (OR) 5 35:09.6 64.9 114 252
252 Lindsey Jackson - Summit (OR) 13 35:46.9 63.7 253
253 Crystal Greer 10 Hoquiam (WA) 1 36:10.5 63.0 254
254 Yuri Yoshioka 10 Regis (OR) 6 36:10.5 63.0 115 255
255 Louise Wilcox 11 Sweet Home (OR) 4 36:13.2 63.0 116 256
256 Felicia Kallert 10 Regis (OR) 7 36:13.2 63.0 117 257
257 Michele Stangland 10 Seaside (OR) 3 36:15.3 258
258 Emily Bobbe 9 Columbia River (WA) 6 36:35.8 62.3 118 259
259 Marelle McNary-Anderson 9 Hoquiam (WA) 2 36:40.8 62.2 260
260 Jessica Larson 10 Hoquiam (WA) 3 36:41.6 62.2 261
261 Karin Jenkins 11 Centralia (WA) 2 36:42.2 262
262 Emily Hainer 12 Centralia (WA) 3 36:42.7 263
263 Lacey Hightower - Sweet Home (OR) 5 36:51.4 61.9 119 264
264 Jenny Blenk - Sequim (WA) 4 38:15.6 59.6 265
265 Sammie Crocker - Regis (OR) 8 38:18.1 59.5 266
266 Evvi Eichelsdoerfer - Bothell (WA) 11 40:33.2 56.2 267